createdAt,value
2023-04-08T00:00:10.079Z,2.40
2023-04-08T00:02:38.076Z,2.40
2023-04-08T00:05:12.655Z,1.90
2023-04-08T00:07:54.880Z,2.40
2023-04-08T00:10:24.922Z,2.70
2023-04-08T00:12:54.007Z,2.50
2023-04-08T00:15:22.669Z,2.10
2023-04-08T00:17:54.745Z,2.37
2023-04-08T00:20:24.565Z,1.90
2023-04-08T00:23:03.542Z,2.33
2023-04-08T00:25:32.642Z,2.50
2023-04-08T00:28:04.379Z,2.47
2023-04-08T00:30:45.696Z,2.33
2023-04-08T00:33:14.943Z,3.47
2023-04-08T00:35:42.902Z,3.10
2023-04-08T00:38:20.583Z,3.70
2023-04-08T00:40:48.929Z,2.40
2023-04-08T00:43:19.341Z,2.43
2023-04-08T00:45:47.358Z,2.53
2023-04-08T00:48:20.854Z,2.70
2023-04-08T00:50:51.947Z,2.50
2023-04-08T00:53:25.662Z,2.97
2023-04-08T00:55:53.763Z,2.83
2023-04-08T00:58:32.621Z,2.93
2023-04-08T01:01:08.013Z,2.67
2023-04-08T01:03:45.016Z,3.57
2023-04-08T01:06:21.845Z,2.87
2023-04-08T01:09:04.924Z,3.37
2023-04-08T01:11:35.939Z,2.90
2023-04-08T01:14:15.785Z,3.30
2023-04-08T01:16:45.397Z,2.87
2023-04-08T01:19:28.571Z,2.90
2023-04-08T01:25:06.477Z,3.30
2023-04-08T01:30:40.785Z,3.40
2023-04-08T01:33:18.681Z,7.00
2023-04-08T01:35:51.744Z,4.70
2023-04-08T01:38:25.885Z,4.63
2023-04-08T01:41:07.788Z,3.40
2023-04-08T01:43:49.303Z,3.30
2023-04-08T01:46:18.438Z,3.80
2023-04-08T01:48:52.008Z,4.17
2023-04-08T01:51:22.230Z,4.07
2023-04-08T01:53:52.990Z,4.93
2023-04-08T01:56:23.681Z,4.40
2023-04-08T01:58:58.677Z,4.20
2023-04-08T02:01:35.276Z,6.20
2023-04-08T02:04:10.374Z,9.10
2023-04-08T02:06:38.802Z,5.23
2023-04-08T02:09:07.917Z,4.53
2023-04-08T02:11:35.775Z,5.20
2023-04-08T02:14:10.956Z,4.20
2023-04-08T02:16:51.556Z,5.00
2023-04-08T02:19:29.884Z,4.23
2023-04-08T02:22:03.946Z,5.87
2023-04-08T02:24:33.848Z,6.17
2023-04-08T02:27:07.008Z,6.73
2023-04-08T02:29:39.772Z,4.50
2023-04-08T02:32:12.027Z,4.93
2023-04-08T02:34:43.267Z,5.40
2023-04-08T02:37:11.662Z,5.10
2023-04-08T02:39:42.916Z,4.77
2023-04-08T02:45:05.575Z,4.90
2023-04-08T02:47:34.915Z,4.90
2023-04-08T02:50:02.793Z,4.93
2023-04-08T02:52:30.506Z,7.50
2023-04-08T02:54:58.269Z,5.33
2023-04-08T02:57:28.300Z,6.50
2023-04-08T03:00:03.993Z,6.43
2023-04-08T03:02:31.934Z,7.63
2023-04-08T03:05:04.115Z,7.03
2023-04-08T03:07:35.045Z,6.40
2023-04-08T03:10:05.492Z,5.83
2023-04-08T03:12:33.834Z,7.90
2023-04-08T03:15:09.304Z,6.90
2023-04-08T03:17:37.469Z,8.03
2023-04-08T03:20:09.488Z,7.50
2023-04-08T03:22:38.099Z,7.10
2023-04-08T03:25:06.424Z,8.20
2023-04-08T03:27:34.012Z,8.33
2023-04-08T03:30:03.262Z,8.37
2023-04-08T03:32:39.699Z,6.13
2023-04-08T03:35:09.262Z,6.70
2023-04-08T03:37:44.750Z,10.20
2023-04-08T03:40:16.288Z,7.47
2023-04-08T03:42:49.479Z,8.60
2023-04-08T03:45:17.296Z,8.00
2023-04-08T03:47:46.689Z,7.30
2023-04-08T03:50:17.525Z,9.70
2023-04-08T03:52:45.395Z,9.17
2023-04-08T03:55:17.904Z,7.60
2023-04-08T03:57:46.296Z,7.40
2023-04-08T04:00:18.300Z,7.03
2023-04-08T04:02:50.427Z,6.63
2023-04-08T04:05:22.537Z,8.83
2023-04-08T04:07:52.991Z,7.60
2023-04-08T04:10:23.086Z,9.13
2023-04-08T04:12:51.432Z,7.50
2023-04-08T04:15:19.240Z,8.90
2023-04-08T04:17:55.174Z,8.10
2023-04-08T04:20:25.974Z,7.30
2023-04-08T04:22:57.125Z,11.63
2023-04-08T04:25:35.650Z,10.47
2023-04-08T04:28:08.017Z,8.37
2023-04-08T04:30:37.998Z,10.03
2023-04-08T04:33:12.243Z,10.20
2023-04-08T04:35:40.883Z,7.40
2023-04-08T04:38:12.358Z,8.17
2023-04-08T04:40:43.312Z,8.77
2023-04-08T04:43:13.204Z,7.97
2023-04-08T04:45:40.951Z,10.40
2023-04-08T04:48:12.351Z,8.67
2023-04-08T04:50:40.357Z,10.13
2023-04-08T04:53:08.579Z,7.33
2023-04-08T04:55:39.173Z,9.33
2023-04-08T04:58:07.044Z,9.10
2023-04-08T05:00:34.794Z,7.07
2023-04-08T05:03:02.453Z,9.20
2023-04-08T05:05:33.111Z,7.67
2023-04-08T05:08:27.965Z,8.53
2023-04-08T05:10:56.499Z,12.50
2023-04-08T05:13:24.235Z,7.23
2023-04-08T05:15:55.324Z,9.17
2023-04-08T05:18:24.300Z,7.60
2023-04-08T05:20:54.164Z,8.33
2023-04-08T05:23:31.766Z,9.10
2023-04-08T05:26:02.519Z,9.23
2023-04-08T05:28:37.405Z,8.07
2023-04-08T05:31:07.911Z,6.97
2023-04-08T05:33:37.771Z,7.77
2023-04-08T05:36:29.187Z,9.20
2023-04-08T05:38:58.146Z,10.10
2023-04-08T05:41:26.036Z,7.00
2023-04-08T05:43:53.998Z,9.77
2023-04-08T05:46:22.873Z,8.60
2023-04-08T05:48:57.588Z,8.50
2023-04-08T05:51:29.069Z,11.10
2023-04-08T05:53:59.405Z,9.27
2023-04-08T05:56:27.760Z,8.37
2023-04-08T05:58:56.488Z,7.90
2023-04-08T06:01:28.193Z,9.10
2023-04-08T06:03:57.994Z,7.27
2023-04-08T06:06:30.547Z,8.70
2023-04-08T06:09:01.138Z,7.53
2023-04-08T06:11:32.203Z,7.80
2023-04-08T06:14:02.517Z,8.27
2023-04-08T06:16:30.481Z,11.70
2023-04-08T06:19:07.740Z,9.90
2023-04-08T06:21:40.107Z,8.53
2023-04-08T06:24:27.171Z,11.77
2023-04-08T06:26:55.098Z,8.83
2023-04-08T06:29:23.574Z,8.03
2023-04-08T06:31:51.489Z,8.00
2023-04-08T06:34:19.114Z,8.87
2023-04-08T06:36:48.384Z,8.60
2023-04-08T06:39:16.984Z,8.40
2023-04-08T06:42:12.090Z,9.53
2023-04-08T06:49:05.981Z,9.40
2023-04-08T06:55:33.565Z,9.23
2023-04-08T06:59:18.848Z,8.50
2023-04-08T07:09:36.268Z,10.33
2023-04-08T07:12:41.208Z,8.70
2023-04-08T07:15:31.533Z,9.20
2023-04-08T07:27:17.429Z,11.07
2023-04-08T07:35:54.004Z,8.47
2023-04-08T07:38:45.080Z,10.93
2023-04-08T07:44:24.041Z,8.60
2023-04-08T07:50:09.261Z,9.30
2023-04-08T07:55:38.780Z,11.37
2023-04-08T08:04:59.234Z,8.30
2023-04-08T08:10:15.301Z,9.90
2023-04-08T08:15:36.711Z,8.33
2023-04-08T08:24:08.187Z,7.80
2023-04-08T08:29:41.455Z,10.13
2023-04-08T08:32:09.636Z,8.47
2023-04-08T08:34:38.570Z,7.97
2023-04-08T08:37:06.345Z,8.40
2023-04-08T08:39:33.923Z,9.73
2023-04-08T08:42:01.889Z,8.10
2023-04-08T08:44:34.045Z,8.43
2023-04-08T08:47:01.925Z,7.10
2023-04-08T08:52:23.712Z,7.27
2023-04-08T08:54:59.525Z,7.83
2023-04-08T08:57:28.881Z,10.20
2023-04-08T08:59:57.615Z,12.10
2023-04-08T09:02:30.192Z,9.37
2023-04-08T09:05:08.292Z,6.00
2023-04-08T09:07:43.708Z,8.17
2023-04-08T09:10:13.415Z,8.90
2023-04-08T09:13:02.891Z,9.13
2023-04-08T09:15:35.114Z,8.50
2023-04-08T09:24:43.800Z,11.83
2023-04-08T09:27:33.733Z,7.70
2023-04-08T09:30:28.083Z,8.30
2023-04-08T09:33:41.178Z,8.53
2023-04-08T09:36:31.472Z,8.30
2023-04-08T09:42:30.829Z,6.70
2023-04-08T09:45:10.984Z,6.33
2023-04-08T09:47:54.765Z,6.37
2023-04-08T09:50:32.393Z,8.40
2023-04-08T09:56:24.914Z,5.30
2023-04-08T09:59:26.095Z,7.23
2023-04-08T10:02:09.752Z,8.47
2023-04-08T10:04:51.486Z,6.40
2023-04-08T10:07:41.594Z,11.80
2023-04-08T10:10:38.334Z,7.00
2023-04-08T10:13:14.465Z,9.73
2023-04-08T10:15:50.139Z,6.53
2023-04-08T10:18:42.191Z,6.07
2023-04-08T10:21:41.809Z,7.80
2023-04-08T10:24:28.824Z,9.10
2023-04-08T10:26:59.116Z,5.63
2023-04-08T10:29:47.021Z,7.10
2023-04-08T10:32:47.972Z,6.90
2023-04-08T10:35:21.623Z,6.47
2023-04-08T10:37:52.331Z,6.80
2023-04-08T10:44:21.836Z,6.40
2023-04-08T10:46:59.013Z,7.00
2023-04-08T10:49:41.697Z,8.57
2023-04-08T10:52:15.090Z,8.10
2023-04-08T10:54:53.999Z,7.13
2023-04-08T11:00:44.023Z,7.53
2023-04-08T11:06:39.542Z,9.33
2023-04-08T11:11:57.943Z,6.57
2023-04-08T11:15:05.786Z,6.27
2023-04-08T11:17:57.569Z,6.07
2023-04-08T11:20:31.297Z,7.27
2023-04-08T11:23:25.338Z,6.10
2023-04-08T11:29:05.916Z,7.83
2023-04-08T11:31:35.069Z,7.20
2023-04-08T11:34:03.749Z,8.00
2023-04-08T11:36:49.037Z,9.53
2023-04-08T11:39:18.445Z,11.37
2023-04-08T11:41:47.339Z,8.50
2023-04-08T11:44:15.638Z,7.50
2023-04-08T11:47:04.960Z,7.43
2023-04-08T11:49:56.017Z,7.40
2023-04-08T11:52:52.146Z,7.67
2023-04-08T11:55:31.238Z,7.57
2023-04-08T11:58:06.097Z,8.87
2023-04-08T12:00:34.186Z,8.03
2023-04-08T12:03:05.968Z,9.30
2023-04-08T12:05:33.864Z,7.80
2023-04-08T12:08:10.110Z,8.20
2023-04-08T12:10:52.654Z,9.83
2023-04-08T12:13:37.327Z,8.13
2023-04-08T12:16:22.044Z,6.77
2023-04-08T12:18:50.474Z,7.73
2023-04-08T12:21:28.216Z,6.80
2023-04-08T12:23:55.975Z,8.07
2023-04-08T12:26:28.181Z,7.57
2023-04-08T12:28:55.940Z,8.50
2023-04-08T12:31:28.439Z,7.40
2023-04-08T12:34:27.059Z,8.17
2023-04-08T12:37:19.433Z,7.97
2023-04-08T12:40:10.291Z,7.60
2023-04-08T12:42:39.997Z,7.73
2023-04-08T12:45:13.511Z,9.93
2023-04-08T12:47:49.811Z,7.20
2023-04-08T12:50:40.691Z,7.03
2023-04-08T12:53:09.540Z,8.60
2023-04-08T12:56:08.856Z,9.50
2023-04-08T13:01:37.761Z,7.50
2023-04-08T13:04:10.121Z,9.77
2023-04-08T13:06:41.825Z,9.73
2023-04-08T13:09:14.418Z,9.07
2023-04-08T13:15:30.924Z,7.90
2023-04-08T13:24:20.077Z,6.70
2023-04-08T13:27:10.089Z,6.70
2023-04-08T13:36:29.220Z,8.30
2023-04-08T13:39:15.006Z,9.60
2023-04-08T13:41:46.127Z,12.20
2023-04-08T13:44:23.184Z,8.70
2023-04-08T13:49:38.127Z,9.93
2023-04-08T13:52:07.276Z,7.43
2023-04-08T13:54:37.284Z,8.97
2023-04-08T13:57:08.912Z,9.60
2023-04-08T13:59:37.948Z,9.03
2023-04-08T14:02:13.985Z,9.00
2023-04-08T14:07:38.435Z,7.67
2023-04-08T14:16:07.649Z,9.10
2023-04-08T14:18:37.437Z,9.20
2023-04-08T14:21:07.410Z,9.80
2023-04-08T14:23:38.028Z,12.77
2023-04-08T14:26:09.625Z,7.77
2023-04-08T14:28:44.791Z,9.33
2023-04-08T14:31:16.924Z,8.80
2023-04-08T14:33:48.733Z,12.53
2023-04-08T14:36:23.065Z,8.60
2023-04-08T14:38:54.033Z,10.63
2023-04-08T14:41:31.379Z,8.93
2023-04-08T14:44:13.514Z,9.50
2023-04-08T14:46:44.568Z,11.53
2023-04-08T14:49:14.403Z,8.70
2023-04-08T14:51:45.779Z,10.03
2023-04-08T14:54:25.797Z,8.57
2023-04-08T14:57:02.624Z,10.77
2023-04-08T14:59:36.851Z,12.10
2023-04-08T15:02:06.990Z,11.43
2023-04-08T15:04:36.246Z,8.90
2023-04-08T15:10:33.406Z,14.57
2023-04-08T15:13:01.463Z,11.33
2023-04-08T15:15:33.648Z,11.40
2023-04-08T15:18:02.677Z,11.93
2023-04-08T15:20:38.580Z,15.90
2023-04-08T15:23:09.513Z,12.87
2023-04-08T15:25:52.437Z,13.23
2023-04-08T15:28:26.903Z,12.03
2023-04-08T15:31:01.722Z,13.60
2023-04-08T15:33:29.649Z,12.33
2023-04-08T15:36:06.025Z,9.77
2023-04-08T15:38:37.162Z,10.63
2023-04-08T15:41:05.029Z,12.73
2023-04-08T15:43:33.513Z,9.40
2023-04-08T15:46:13.072Z,10.93
2023-04-08T15:49:00.266Z,12.80
2023-04-08T15:51:31.906Z,10.50
2023-04-08T15:57:19.013Z,10.90
2023-04-08T15:59:59.011Z,9.37
2023-04-08T16:02:32.903Z,10.60
2023-04-08T16:05:04.807Z,13.93
2023-04-08T16:07:32.915Z,10.83
2023-04-08T16:12:58.765Z,12.20
2023-04-08T16:15:30.405Z,10.67
2023-04-08T16:18:03.728Z,10.63
2023-04-08T16:20:33.259Z,12.80
2023-04-08T16:23:06.933Z,11.17
2023-04-08T16:25:38.469Z,11.53
2023-04-08T16:30:49.402Z,13.07
2023-04-08T16:33:37.306Z,12.03
2023-04-08T16:36:08.955Z,11.37
2023-04-08T16:38:41.015Z,11.03
2023-04-08T16:41:15.612Z,12.13
2023-04-08T16:46:31.247Z,9.93
2023-04-08T16:49:02.215Z,9.40
2023-04-08T16:51:30.599Z,8.30
2023-04-08T16:54:02.429Z,8.90
2023-04-08T16:56:32.777Z,9.70
2023-04-08T16:59:03.232Z,7.33
2023-04-08T17:01:46.301Z,6.33
2023-04-08T17:07:16.752Z,6.77
2023-04-08T17:10:06.501Z,5.07
2023-04-08T17:12:53.330Z,5.70
2023-04-08T17:15:44.354Z,3.37
2023-04-08T17:18:31.566Z,4.40
2023-04-08T17:21:21.793Z,3.50
2023-04-08T17:24:13.239Z,3.37
2023-04-08T17:33:05.473Z,2.80
2023-04-08T17:35:38.064Z,2.60
2023-04-08T17:38:19.885Z,3.40
2023-04-08T17:40:58.016Z,7.33
2023-04-08T17:43:27.102Z,6.90
2023-04-08T17:46:04.776Z,5.90
2023-04-08T17:48:35.409Z,5.27
2023-04-08T17:51:16.063Z,3.83
2023-04-08T17:54:03.550Z,3.90
2023-04-08T17:59:36.990Z,3.17
2023-04-08T18:02:11.090Z,3.53
2023-04-08T18:04:40.238Z,3.53
2023-04-08T18:07:23.082Z,3.80
2023-04-08T18:09:53.684Z,3.27
2023-04-08T18:12:32.528Z,3.53
2023-04-08T18:15:10.228Z,4.10
2023-04-08T18:17:41.233Z,4.83
2023-04-08T18:20:11.266Z,4.30
2023-04-08T18:22:42.519Z,5.60
2023-04-08T18:25:18.308Z,3.43
2023-04-08T18:27:52.546Z,4.47
2023-04-08T18:30:40.878Z,7.73
2023-04-08T18:33:17.906Z,5.93
2023-04-08T18:36:25.851Z,5.37
2023-04-08T18:38:54.451Z,3.30
2023-04-08T18:41:38.230Z,3.57
2023-04-08T18:44:15.709Z,4.33
2023-04-08T18:46:45.828Z,2.70
2023-04-08T18:49:18.054Z,3.40
2023-04-08T18:51:59.084Z,3.57
2023-04-08T18:54:32.935Z,3.50
2023-04-08T18:57:15.531Z,3.07
2023-04-08T18:59:44.122Z,5.57
2023-04-08T19:02:56.787Z,5.97
2023-04-08T19:05:25.469Z,6.27
2023-04-08T19:08:12.593Z,4.80
2023-04-08T19:11:03.986Z,5.20
2023-04-08T19:16:27.561Z,5.10
2023-04-08T19:22:25.351Z,6.80
2023-04-08T19:24:57.852Z,6.67
2023-04-08T19:27:37.986Z,4.67
2023-04-08T19:30:29.160Z,8.13
2023-04-08T19:32:59.929Z,4.03
2023-04-08T19:38:14.184Z,4.20
2023-04-08T19:40:52.892Z,5.60
2023-04-08T19:43:26.274Z,4.73
2023-04-08T19:46:10.849Z,4.67
2023-04-08T19:48:56.388Z,5.60
2023-04-08T19:51:34.463Z,4.77
2023-04-08T19:54:23.919Z,5.47
2023-04-08T19:56:53.881Z,5.10
2023-04-08T19:59:27.730Z,4.90
2023-04-08T20:02:04.357Z,5.87
2023-04-08T20:04:32.548Z,5.33
2023-04-08T20:07:04.577Z,5.43
2023-04-08T20:09:35.777Z,9.17
2023-04-08T20:12:05.943Z,6.50
2023-04-08T20:14:41.149Z,8.90
2023-04-08T20:17:12.348Z,6.17
2023-04-08T20:19:41.662Z,7.43
2023-04-08T20:22:18.624Z,5.43
2023-04-08T20:24:47.756Z,5.40
2023-04-08T20:27:23.160Z,5.33
2023-04-08T20:29:57.447Z,9.83
2023-04-08T20:32:30.637Z,5.27
2023-04-08T20:34:59.896Z,7.53
2023-04-08T20:37:30.958Z,8.33
2023-04-08T20:40:01.584Z,10.30
2023-04-08T20:42:35.833Z,6.93
2023-04-08T20:45:14.712Z,6.73
2023-04-08T20:48:05.605Z,7.77
2023-04-08T20:50:40.624Z,6.07
2023-04-08T20:53:12.795Z,6.10
2023-04-08T20:55:48.367Z,6.93
2023-04-08T20:58:20.443Z,8.20
2023-04-08T21:00:52.097Z,8.53
2023-04-08T21:03:22.346Z,5.97
2023-04-08T21:05:55.407Z,9.10
2023-04-08T21:08:30.645Z,6.93
2023-04-08T21:11:00.988Z,9.27
2023-04-08T21:16:34.512Z,8.47
2023-04-08T21:19:05.266Z,8.20
2023-04-08T21:21:44.639Z,8.27
2023-04-08T21:24:14.169Z,6.47
2023-04-08T21:26:43.645Z,8.37
2023-04-08T21:29:13.557Z,7.20
2023-04-08T21:31:49.772Z,9.93
2023-04-08T21:34:23.829Z,8.60
2023-04-08T21:36:56.636Z,8.60
2023-04-08T21:39:24.373Z,8.20
2023-04-08T21:42:00.040Z,9.90
2023-04-08T21:44:28.490Z,8.63
2023-04-08T21:46:56.281Z,7.93
2023-04-08T21:49:26.050Z,8.07
2023-04-08T21:51:54.055Z,8.73
2023-04-08T21:54:24.425Z,7.43
2023-04-08T21:56:52.326Z,7.30
2023-04-08T21:59:20.484Z,8.47
2023-04-08T22:01:51.407Z,8.47
2023-04-08T22:04:20.635Z,8.83
2023-04-08T22:09:35.588Z,7.63
2023-04-08T22:12:03.512Z,8.70
2023-04-08T22:14:32.412Z,8.03
2023-04-08T22:17:00.697Z,7.53
2023-04-08T22:19:33.113Z,8.43
2023-04-08T22:22:05.450Z,8.43
2023-04-08T22:24:41.265Z,8.50
2023-04-08T22:29:59.880Z,6.43
2023-04-08T22:32:37.539Z,7.33
2023-04-08T22:35:09.216Z,8.50
2023-04-08T22:37:45.937Z,7.87
2023-04-08T22:40:17.388Z,7.80
2023-04-08T22:42:52.158Z,9.93
2023-04-08T22:48:20.409Z,7.60
2023-04-08T22:50:52.083Z,9.20
2023-04-08T22:53:29.733Z,6.93
2023-04-08T22:55:59.067Z,9.97
2023-04-08T22:58:30.202Z,7.13
2023-04-08T23:01:03.887Z,10.47
2023-04-08T23:03:53.656Z,9.23
2023-04-08T23:06:37.112Z,9.53
2023-04-08T23:12:16.746Z,9.60
2023-04-08T23:15:04.432Z,8.20
2023-04-08T23:17:40.888Z,8.13
2023-04-08T23:23:05.770Z,7.90
2023-04-08T23:25:59.950Z,8.10
2023-04-08T23:28:52.857Z,9.80
2023-04-08T23:31:27.938Z,10.63
2023-04-08T23:33:59.060Z,8.73
2023-04-08T23:36:28.899Z,9.87
2023-04-08T23:39:01.399Z,8.87
2023-04-08T23:41:57.888Z,8.50
2023-04-08T23:45:07.996Z,9.17
2023-04-08T23:47:52.099Z,9.07
2023-04-08T23:50:30.943Z,9.33
2023-04-08T23:56:42.232Z,5.87
2023-04-08T23:59:21.013Z,9.17
